createdAt,value
2022-12-11T00:01:44.043Z,0.80
2022-12-11T00:04:33.995Z,0.80
2022-12-11T00:10:11.829Z,0.90
2022-12-11T00:13:00.674Z,0.90
2022-12-11T00:15:48.533Z,0.90
2022-12-11T00:18:36.966Z,0.90
2022-12-11T00:21:26.569Z,0.90
2022-12-11T00:24:14.372Z,1.00
2022-12-11T00:27:02.610Z,0.90
2022-12-11T00:29:50.554Z,0.80
2022-12-11T00:32:38.102Z,0.90
2022-12-11T00:35:26.943Z,0.90
2022-12-11T00:38:17.988Z,0.90
2022-12-11T00:41:06.265Z,0.90
2022-12-11T00:43:54.153Z,1.10
2022-12-11T00:46:42.619Z,0.90
2022-12-11T00:49:30.278Z,0.90
2022-12-11T00:52:19.021Z,0.90
2022-12-11T00:55:09.917Z,1.00
2022-12-11T00:57:58.576Z,1.00
2022-12-11T01:00:46.163Z,1.00
2022-12-11T01:03:33.818Z,0.00
2022-12-11T01:06:22.583Z,0.90
2022-12-11T01:09:28.117Z,0.90
2022-12-11T01:12:17.912Z,0.90
2022-12-11T01:15:06.577Z,0.90
2022-12-11T01:17:54.689Z,0.90
2022-12-11T01:20:42.767Z,0.90
2022-12-11T01:23:31.256Z,0.90
2022-12-11T01:26:19.978Z,0.90
2022-12-11T01:29:09.739Z,0.90
2022-12-11T01:31:58.067Z,0.90
2022-12-11T01:34:47.117Z,0.90
2022-12-11T01:37:35.701Z,1.00
2022-12-11T01:40:23.930Z,1.00
2022-12-11T01:43:13.265Z,1.00
2022-12-11T01:46:03.055Z,1.00
2022-12-11T01:48:51.606Z,1.00
2022-12-11T01:51:41.986Z,0.90
2022-12-11T01:54:30.713Z,1.00
2022-12-11T01:57:18.663Z,1.10
2022-12-11T02:00:07.748Z,0.90
2022-12-11T02:03:01.795Z,1.00
2022-12-11T02:05:49.809Z,1.00
2022-12-11T02:08:37.305Z,1.00
2022-12-11T02:11:28.636Z,0.90
2022-12-11T02:14:21.775Z,0.90
2022-12-11T02:17:13.556Z,0.90
2022-12-11T02:20:07.039Z,1.00
2022-12-11T02:23:01.750Z,0.90
2022-12-11T02:25:55.542Z,0.90
2022-12-11T02:28:46.879Z,0.90
2022-12-11T02:31:38.210Z,1.00
2022-12-11T02:34:30.215Z,0.90
2022-12-11T02:37:24.962Z,1.00
2022-12-11T02:40:13.950Z,0.80
2022-12-11T02:43:03.096Z,0.90
2022-12-11T02:45:53.111Z,0.90
2022-12-11T02:48:42.165Z,0.80
2022-12-11T02:51:32.057Z,0.90
2022-12-11T02:54:22.049Z,0.80
2022-12-11T02:57:11.214Z,0.90
2022-12-11T02:59:59.148Z,0.80
2022-12-11T03:02:47.976Z,0.90
2022-12-11T03:05:35.763Z,0.90
2022-12-11T03:08:23.776Z,0.90
2022-12-11T03:11:12.111Z,1.40
2022-12-11T03:14:02.952Z,0.80
2022-12-11T03:16:55.345Z,0.90
2022-12-11T03:19:49.049Z,0.90
2022-12-11T03:22:40.568Z,0.90
2022-12-11T03:25:31.962Z,0.80
2022-12-11T03:28:26.387Z,0.80
2022-12-11T03:31:15.679Z,1.00
2022-12-11T03:34:05.502Z,0.90
2022-12-11T03:36:57.039Z,0.90
2022-12-11T03:39:45.627Z,0.80
2022-12-11T03:42:33.454Z,0.90
2022-12-11T03:45:22.370Z,0.90
2022-12-11T03:48:10.862Z,0.90
2022-12-11T03:50:59.706Z,0.90
2022-12-11T03:53:49.091Z,0.70
2022-12-11T03:56:37.327Z,0.90
2022-12-11T03:59:24.937Z,0.80
2022-12-11T04:02:13.346Z,0.80
2022-12-11T04:05:01.390Z,0.70
2022-12-11T04:07:49.296Z,0.80
2022-12-11T04:10:38.700Z,0.80
2022-12-11T04:13:26.577Z,0.80
2022-12-11T04:16:13.045Z,0.80
2022-12-11T04:19:17.547Z,0.80
2022-12-11T04:22:23.155Z,0.80
2022-12-11T04:25:10.899Z,0.80
2022-12-11T04:28:00.828Z,0.90
2022-12-11T04:30:50.051Z,0.80
2022-12-11T04:33:38.223Z,0.80
2022-12-11T04:36:26.512Z,0.80
2022-12-11T04:39:14.442Z,0.80
2022-12-11T04:42:02.673Z,0.70
2022-12-11T04:44:52.229Z,0.80
2022-12-11T04:47:41.787Z,0.80
2022-12-11T04:50:30.140Z,0.80
2022-12-11T04:53:17.982Z,0.70
2022-12-11T04:56:06.719Z,0.80
2022-12-11T04:58:54.633Z,0.70
2022-12-11T05:01:44.202Z,0.80
2022-12-11T05:04:33.222Z,0.70
2022-12-11T05:07:21.597Z,0.80
2022-12-11T05:10:10.948Z,0.80
2022-12-11T05:12:59.176Z,0.80
2022-12-11T05:15:47.403Z,0.80
2022-12-11T05:18:36.161Z,0.80
2022-12-11T05:21:24.812Z,0.80
2022-12-11T05:24:12.439Z,0.70
2022-12-11T05:27:01.130Z,0.80
2022-12-11T05:29:56.193Z,0.80
2022-12-11T05:32:47.146Z,0.70
2022-12-11T05:35:36.686Z,0.70
2022-12-11T05:38:25.169Z,0.70
2022-12-11T05:41:15.166Z,0.80
2022-12-11T05:44:02.455Z,0.80
2022-12-11T05:46:50.958Z,0.80
2022-12-11T05:49:42.356Z,0.70
2022-12-11T05:52:33.278Z,0.70
2022-12-11T05:55:21.503Z,0.80
2022-12-11T05:58:08.927Z,0.80
2022-12-11T06:00:56.979Z,0.70
2022-12-11T06:03:45.399Z,0.70
2022-12-11T06:06:39.962Z,0.80
2022-12-11T06:09:29.046Z,0.70
2022-12-11T06:12:16.701Z,0.70
2022-12-11T06:15:05.787Z,0.70
2022-12-11T06:17:53.496Z,0.70
2022-12-11T06:20:42.326Z,0.70
2022-12-11T06:23:30.300Z,0.80
2022-12-11T06:26:19.596Z,0.70
2022-12-11T06:29:12.557Z,0.70
2022-12-11T06:32:01.967Z,0.80
2022-12-11T06:34:50.425Z,0.70
2022-12-11T06:37:39.069Z,0.80
2022-12-11T06:40:26.839Z,0.70
2022-12-11T06:43:15.561Z,0.80
2022-12-11T06:46:05.080Z,0.70
2022-12-11T06:48:53.351Z,0.70
2022-12-11T06:51:40.841Z,0.80
2022-12-11T06:54:28.881Z,0.80
2022-12-11T06:57:16.809Z,0.70
2022-12-11T07:00:07.446Z,0.70
2022-12-11T07:02:56.876Z,0.70
2022-12-11T07:05:44.844Z,0.80
2022-12-11T07:08:33.832Z,0.80
2022-12-11T07:11:21.362Z,0.70
2022-12-11T07:14:09.069Z,0.70
2022-12-11T07:16:58.988Z,1.90
2022-12-11T07:19:46.452Z,0.70
2022-12-11T07:22:34.192Z,0.80
2022-12-11T07:25:22.737Z,0.80
2022-12-11T07:28:13.638Z,0.90
2022-12-11T07:31:06.597Z,0.70
2022-12-11T07:33:56.188Z,0.70
2022-12-11T07:36:44.434Z,0.80
2022-12-11T07:39:31.802Z,0.70
2022-12-11T07:42:19.144Z,0.70
2022-12-11T07:45:07.342Z,0.80
2022-12-11T07:47:55.532Z,0.70
2022-12-11T07:50:44.796Z,0.70
2022-12-11T07:53:32.573Z,0.80
2022-12-11T07:56:19.990Z,0.80
2022-12-11T07:59:07.620Z,0.70
2022-12-11T08:01:55.979Z,0.80
2022-12-11T08:04:43.719Z,0.70
2022-12-11T08:07:32.892Z,0.70
2022-12-11T08:10:20.910Z,0.70
2022-12-11T08:13:11.543Z,0.70
2022-12-11T08:16:00.201Z,0.70
2022-12-11T08:18:48.775Z,0.70
2022-12-11T08:21:36.926Z,0.70
2022-12-11T08:24:25.734Z,0.80
2022-12-11T08:27:14.008Z,0.80
2022-12-11T08:30:01.495Z,0.80
2022-12-11T08:32:48.947Z,0.70
2022-12-11T08:35:39.746Z,0.80
2022-12-11T08:38:27.536Z,1.10
2022-12-11T08:41:17.065Z,0.70
2022-12-11T08:44:06.084Z,0.50
2022-12-11T08:47:08.642Z,0.60
2022-12-11T08:49:59.166Z,0.80
2022-12-11T08:52:47.757Z,0.90
2022-12-11T08:55:37.353Z,0.80
2022-12-11T08:58:26.412Z,0.90
2022-12-11T09:01:15.565Z,0.70
2022-12-11T09:04:05.153Z,0.90
2022-12-11T09:06:52.766Z,0.90
2022-12-11T09:09:40.402Z,0.90
2022-12-11T09:12:28.944Z,0.90
2022-12-11T09:15:19.365Z,0.90
2022-12-11T09:18:07.298Z,1.20
2022-12-11T09:21:01.980Z,0.90
2022-12-11T09:23:49.724Z,0.90
2022-12-11T09:26:38.122Z,0.90
2022-12-11T09:29:25.919Z,0.90
2022-12-11T09:32:14.762Z,0.90
2022-12-11T09:35:02.940Z,1.00
2022-12-11T09:37:50.958Z,1.00
2022-12-11T09:40:41.882Z,1.00
2022-12-11T09:43:34.926Z,1.10
2022-12-11T09:46:24.699Z,1.10
2022-12-11T09:49:18.189Z,1.10
2022-12-11T09:52:08.514Z,1.10
2022-12-11T09:54:58.531Z,1.20
2022-12-11T09:57:49.863Z,1.70
2022-12-11T10:00:40.803Z,1.20
2022-12-11T10:03:48.867Z,1.10
2022-12-11T10:06:40.932Z,1.00
2022-12-11T10:09:32.339Z,1.20
2022-12-11T10:12:33.715Z,1.30
2022-12-11T10:15:27.611Z,1.40
2022-12-11T10:18:17.407Z,1.50
2022-12-11T10:21:06.815Z,1.70
2022-12-11T10:23:59.419Z,3.30
2022-12-11T10:26:48.924Z,1.70
2022-12-11T10:29:36.178Z,1.40
2022-12-11T10:32:25.729Z,1.70
2022-12-11T10:35:19.610Z,1.60
2022-12-11T10:38:15.169Z,1.60
2022-12-11T10:41:05.524Z,1.70
2022-12-11T10:44:04.271Z,1.70
2022-12-11T10:47:02.932Z,1.80
2022-12-11T10:49:54.390Z,1.90
2022-12-11T10:52:46.591Z,1.70
2022-12-11T10:55:40.391Z,1.80
2022-12-11T10:58:33.983Z,1.90
2022-12-11T11:01:22.727Z,1.80
2022-12-11T11:04:16.876Z,1.90
2022-12-11T11:07:05.905Z,1.80
2022-12-11T11:10:04.293Z,1.70
2022-12-11T11:12:56.732Z,1.80
2022-12-11T11:15:46.646Z,1.80
2022-12-11T11:18:34.666Z,1.90
2022-12-11T11:21:24.140Z,1.90
2022-12-11T11:24:23.375Z,1.90
2022-12-11T11:27:14.602Z,1.80
2022-12-11T11:30:03.981Z,1.80
2022-12-11T11:32:55.565Z,1.70
2022-12-11T11:35:52.805Z,1.90
2022-12-11T11:38:43.911Z,2.00
2022-12-11T11:41:39.190Z,1.90
2022-12-11T11:44:31.382Z,2.00
2022-12-11T11:47:21.362Z,2.00
2022-12-11T11:50:14.839Z,2.00
2022-12-11T11:53:04.496Z,2.00
2022-12-11T11:55:55.954Z,1.90
2022-12-11T11:58:46.326Z,1.70
2022-12-11T12:01:33.973Z,1.60
2022-12-11T12:04:22.308Z,1.50
2022-12-11T12:07:18.396Z,1.30
2022-12-11T12:10:15.077Z,1.60
2022-12-11T12:13:14.323Z,1.50
2022-12-11T12:16:43.757Z,1.60
2022-12-11T12:19:27.980Z,1.50
2022-12-11T12:22:24.303Z,1.40
2022-12-11T12:25:17.221Z,1.40
2022-12-11T12:28:09.948Z,1.50
2022-12-11T12:31:05.518Z,1.60
2022-12-11T12:33:59.018Z,1.60
2022-12-11T12:36:50.315Z,2.50
2022-12-11T12:39:44.916Z,1.50
2022-12-11T12:42:34.932Z,1.50
2022-12-11T12:45:26.838Z,2.10
2022-12-11T12:48:14.623Z,1.50
2022-12-11T12:51:02.992Z,1.60
2022-12-11T12:53:54.346Z,1.70
2022-12-11T12:56:45.331Z,1.80
2022-12-11T12:59:33.363Z,2.00
2022-12-11T13:02:22.046Z,2.10
2022-12-11T13:05:21.662Z,2.80
2022-12-11T13:08:09.711Z,2.20
2022-12-11T13:11:02.479Z,2.20
2022-12-11T13:14:03.138Z,2.20
2022-12-11T13:16:51.768Z,2.30
2022-12-11T13:19:42.738Z,2.10
2022-12-11T13:22:31.589Z,2.10
2022-12-11T13:25:22.301Z,2.10
2022-12-11T13:28:22.051Z,3.60
2022-12-11T13:34:16.697Z,1.90
2022-12-11T13:37:05.710Z,1.90
2022-12-11T13:39:53.902Z,1.90
2022-12-11T13:42:45.734Z,1.90
2022-12-11T13:45:36.808Z,1.80
2022-12-11T13:48:27.174Z,1.80
2022-12-11T13:51:18.047Z,1.80
2022-12-11T13:54:07.475Z,1.80
2022-12-11T13:56:56.148Z,1.70
2022-12-11T13:59:44.894Z,1.70
2022-12-11T14:02:35.398Z,1.70
2022-12-11T14:05:23.892Z,1.70
2022-12-11T14:08:13.798Z,1.70
2022-12-11T14:11:03.037Z,1.70
2022-12-11T14:13:51.101Z,1.60
2022-12-11T14:16:39.052Z,1.60
2022-12-11T14:19:27.123Z,4.10
2022-12-11T14:22:19.140Z,1.50
2022-12-11T14:25:18.304Z,1.50
2022-12-11T14:28:05.763Z,1.50
2022-12-11T14:30:53.264Z,1.50
2022-12-11T14:33:43.155Z,1.50
2022-12-11T14:36:31.414Z,1.50
2022-12-11T14:39:22.209Z,2.20
2022-12-11T14:42:13.738Z,1.40
2022-12-11T14:45:04.121Z,1.40
2022-12-11T14:47:53.883Z,1.40
2022-12-11T14:50:43.896Z,1.30
2022-12-11T14:53:34.083Z,1.40
2022-12-11T14:56:23.067Z,1.30
2022-12-11T14:59:19.598Z,1.40
2022-12-11T15:02:23.113Z,1.30
2022-12-11T15:05:16.225Z,1.30
2022-12-11T15:08:05.341Z,1.30
2022-12-11T15:11:01.937Z,1.30
2022-12-11T15:13:53.664Z,1.20
2022-12-11T15:16:46.434Z,1.20
2022-12-11T15:19:36.416Z,1.20
2022-12-11T15:22:27.492Z,1.20
2022-12-11T15:25:19.856Z,1.20
2022-12-11T15:28:23.079Z,1.20
2022-12-11T15:31:25.128Z,1.20
2022-12-11T15:34:24.945Z,1.20
2022-12-11T15:37:19.179Z,1.10
2022-12-11T15:40:07.202Z,1.10
2022-12-11T15:42:56.149Z,1.10
2022-12-11T15:45:44.453Z,1.10
2022-12-11T15:48:32.645Z,1.10
2022-12-11T15:51:23.123Z,1.00
2022-12-11T15:54:11.183Z,1.00
2022-12-11T15:56:58.818Z,1.00
2022-12-11T15:59:47.671Z,1.00
2022-12-11T16:02:36.186Z,1.00
2022-12-11T16:05:23.662Z,2.30
2022-12-11T16:08:15.247Z,1.10
2022-12-11T16:11:02.893Z,0.90
2022-12-11T16:13:50.637Z,0.90
2022-12-11T16:16:38.075Z,0.90
2022-12-11T16:19:27.211Z,0.90
2022-12-11T16:22:15.673Z,0.90
2022-12-11T16:25:04.553Z,1.00
2022-12-11T16:27:53.117Z,0.90
2022-12-11T16:30:43.713Z,0.90
2022-12-11T16:33:31.566Z,0.90
2022-12-11T16:36:20.676Z,0.80
2022-12-11T16:39:08.696Z,0.80
2022-12-11T16:41:58.322Z,0.80
2022-12-11T16:44:45.952Z,0.70
2022-12-11T16:47:34.171Z,0.80
2022-12-11T16:50:22.514Z,1.50
2022-12-11T16:53:10.457Z,0.80
2022-12-11T16:55:58.191Z,0.80
2022-12-11T16:58:47.767Z,0.80
2022-12-11T17:01:35.489Z,0.70
2022-12-11T17:04:23.251Z,0.70
2022-12-11T17:07:11.095Z,0.70
2022-12-11T17:10:09.047Z,0.70
2022-12-11T17:12:57.202Z,0.70
2022-12-11T17:15:47.042Z,0.70
2022-12-11T17:18:35.351Z,0.70
2022-12-11T17:21:23.688Z,0.70
2022-12-11T17:24:11.896Z,0.60
2022-12-11T17:26:59.854Z,0.60
2022-12-11T17:29:49.635Z,0.60
2022-12-11T17:32:38.415Z,0.60
2022-12-11T17:35:26.673Z,-1.30
2022-12-11T17:38:14.073Z,0.70
2022-12-11T17:41:01.810Z,0.50
2022-12-11T17:43:50.854Z,0.50
2022-12-11T17:46:38.854Z,0.40
2022-12-11T17:49:28.193Z,0.40
2022-12-11T17:52:15.929Z,0.20
2022-12-11T17:55:03.464Z,0.00
2022-12-11T17:57:50.791Z,-0.10
2022-12-11T18:00:40.370Z,-0.40
2022-12-11T18:03:29.503Z,-2.00
2022-12-11T18:06:23.276Z,-0.80
2022-12-11T18:09:11.936Z,-0.80
2022-12-11T18:12:00.503Z,1.00
2022-12-11T18:14:48.836Z,-1.10
2022-12-11T18:17:36.620Z,-1.20
2022-12-11T18:20:24.222Z,-1.40
2022-12-11T18:23:17.134Z,-0.40
2022-12-11T18:26:11.339Z,-1.30
2022-12-11T18:28:59.402Z,-1.60
2022-12-11T18:31:48.057Z,-1.70
2022-12-11T18:34:36.299Z,-1.80
2022-12-11T18:37:28.384Z,-1.80
2022-12-11T18:40:18.313Z,-1.90
2022-12-11T18:43:23.984Z,-2.20
2022-12-11T18:46:14.813Z,-1.50
2022-12-11T18:49:03.103Z,-2.00
2022-12-11T18:51:52.493Z,-2.00
2022-12-11T18:54:40.571Z,-2.00
2022-12-11T18:57:29.511Z,-2.10
2022-12-11T19:00:18.442Z,-2.10
2022-12-11T19:03:06.777Z,-2.10
2022-12-11T19:05:54.530Z,-2.00
2022-12-11T19:08:42.262Z,-1.90
2022-12-11T19:11:32.751Z,-1.90
2022-12-11T19:14:22.544Z,-1.90
2022-12-11T19:17:12.883Z,-0.90
2022-12-11T19:20:18.827Z,-2.00
2022-12-11T19:23:08.163Z,-2.10
2022-12-11T19:25:55.814Z,-2.10
2022-12-11T19:28:44.961Z,-2.20
2022-12-11T19:31:34.727Z,-2.20
2022-12-11T19:34:25.471Z,-2.30
2022-12-11T19:37:13.180Z,-2.40
2022-12-11T19:40:00.983Z,-2.40
2022-12-11T19:42:49.219Z,-2.50
2022-12-11T19:45:37.456Z,-2.60
2022-12-11T19:48:26.674Z,-2.40
2022-12-11T19:51:15.641Z,-2.60
2022-12-11T19:54:04.497Z,-2.50
2022-12-11T19:56:52.265Z,-2.50
2022-12-11T19:59:42.519Z,-2.60
2022-12-11T20:02:30.113Z,-2.60
2022-12-11T20:05:19.641Z,-2.60
2022-12-11T20:08:42.358Z,-2.50
2022-12-11T20:11:18.639Z,-2.20
2022-12-11T20:14:07.021Z,-2.50
2022-12-11T20:17:13.872Z,-2.30
2022-12-11T20:20:02.261Z,-2.30
2022-12-11T20:22:52.519Z,-2.30
2022-12-11T20:25:43.222Z,-2.30
2022-12-11T20:28:31.983Z,-2.30
2022-12-11T20:31:24.235Z,-2.30
2022-12-11T20:34:12.605Z,-2.30
2022-12-11T20:37:00.554Z,-2.40
2022-12-11T20:39:50.083Z,-2.60
2022-12-11T20:42:37.921Z,-2.60
2022-12-11T20:45:25.897Z,-2.60
2022-12-11T20:48:13.832Z,-2.70
2022-12-11T20:51:01.938Z,-2.60
2022-12-11T20:53:50.399Z,-2.10
2022-12-11T20:56:39.457Z,-2.30
2022-12-11T20:59:27.500Z,-2.30
2022-12-11T21:02:15.324Z,-2.50
2022-12-11T21:05:03.345Z,-2.50
2022-12-11T21:07:51.590Z,-2.50
2022-12-11T21:10:42.074Z,-2.50
2022-12-11T21:13:32.408Z,-2.60
2022-12-11T21:16:20.391Z,-2.60
2022-12-11T21:19:10.206Z,-2.60
2022-12-11T21:22:01.330Z,-2.60
2022-12-11T21:24:49.728Z,-2.60
2022-12-11T21:27:37.422Z,-2.60
2022-12-11T21:30:26.691Z,-2.70
2022-12-11T21:33:14.738Z,-2.70
2022-12-11T21:36:02.686Z,-2.60
2022-12-11T21:38:50.582Z,-2.70
2022-12-11T21:41:38.986Z,-2.70
2022-12-11T21:47:35.988Z,-2.70
2022-12-11T21:50:23.622Z,-2.70
2022-12-11T21:53:11.044Z,-2.70
2022-12-11T21:55:58.577Z,-4.40
2022-12-11T21:58:47.722Z,-2.50
2022-12-11T22:01:40.288Z,-2.60
2022-12-11T22:04:29.204Z,-2.60
2022-12-11T22:07:16.840Z,-2.50
2022-12-11T22:10:05.854Z,-2.50
2022-12-11T22:12:53.291Z,-5.40
2022-12-11T22:15:41.018Z,-2.40
2022-12-11T22:18:30.035Z,-2.30
2022-12-11T22:21:18.977Z,-2.30
2022-12-11T22:24:07.546Z,-2.20
2022-12-11T22:26:56.089Z,-2.20
2022-12-11T22:29:43.544Z,-2.20
2022-12-11T22:32:30.971Z,-2.10
2022-12-11T22:35:24.102Z,-2.10
2022-12-11T22:38:16.287Z,-2.00
2022-12-11T22:41:04.770Z,-1.30
2022-12-11T22:43:52.276Z,-2.00
2022-12-11T22:46:39.665Z,-1.90
2022-12-11T22:49:27.477Z,-2.20
2022-12-11T22:52:14.945Z,-1.90
2022-12-11T22:55:07.483Z,-2.00
2022-12-11T22:57:55.616Z,-1.90
2022-12-11T23:00:43.707Z,-1.90
2022-12-11T23:03:31.844Z,-1.90
2022-12-11T23:06:20.445Z,-1.90
2022-12-11T23:09:08.876Z,-1.90
2022-12-11T23:11:58.949Z,-2.00
2022-12-11T23:14:46.603Z,-2.20
2022-12-11T23:17:33.982Z,-1.90
2022-12-11T23:20:22.050Z,-2.00
2022-12-11T23:23:09.684Z,-2.00
2022-12-11T23:25:57.563Z,-2.40
2022-12-11T23:28:46.480Z,-1.90
2022-12-11T23:31:34.000Z,-1.90
2022-12-11T23:34:21.707Z,-1.80
2022-12-11T23:37:09.159Z,-1.80
2022-12-11T23:39:56.464Z,-2.00
2022-12-11T23:42:45.050Z,-2.10
2022-12-11T23:45:35.615Z,-2.20
2022-12-11T23:48:23.330Z,-2.20
2022-12-11T23:51:15.748Z,-2.20
2022-12-11T23:54:07.619Z,-2.30
2022-12-11T23:56:55.897Z,-2.40
2022-12-11T23:59:45.342Z,-2.60
